Time;durP1;ratioP1;P1;durP2;ratioP2;P2;SDS_P1;SDS_P2;PMS_P1;PMS_P2;Temp;Humidity;BMP_temperature;BMP_pressure;BME280_temperature;BME280_humidity;BME280_pressure;Samples;Min_cycle;Max_cycle;Signal;HPM_P1;HPM_P2
2023/08/13 00:01:47;;;;;;;37.53;9.90;;;;;;;-144.73;100.00;54539.06;4973709;28;20057;-76
2023/08/13 00:04:13;;;;;;;36.35;12.07;;;;;;;-144.73;100.00;54530.84;4974575;28;20030;-76
2023/08/13 00:06:38;;;;;;;19.85;8.43;;;;;;;-144.73;100.00;54569.84;4981840;28;20022;-76
2023/08/13 00:09:04;;;;;;;22.95;8.65;;;;;;;-144.73;100.00;54510.31;4965882;28;20033;-76
2023/08/13 00:11:29;;;;;;;21.35;9.02;;;;;;;-144.73;100.00;54522.63;4974998;28;20039;-76
2023/08/13 00:13:55;;;;;;;32.10;8.32;;;;;;;-144.73;100.00;54514.44;4990026;28;20045;-77
2023/08/13 00:16:20;;;;;;;27.83;9.07;;;;;;;-144.73;100.00;54502.13;4980981;28;20014;-76
2023/08/13 00:18:45;;;;;;;31.88;9.48;;;;;;;-144.73;100.00;54567.81;4974589;28;20023;-76
2023/08/13 00:21:11;;;;;;;34.22;8.15;;;;;;;-144.73;100.00;54518.53;4977858;28;20038;-76
2023/08/13 00:23:37;;;;;;;38.97;9.35;;;;;;;-144.73;100.00;54539.06;4977089;28;20081;-76
2023/08/13 00:26:03;;;;;;;29.63;8.52;;;;;;;-144.73;100.00;54563.69;4979577;28;20062;-76
2023/08/13 00:28:28;;;;;;;45.45;10.00;;;;;;;-144.73;100.00;54530.84;4973711;28;20054;-76
2023/08/13 00:30:54;;;;;;;32.30;8.55;;;;;;;-144.73;100.00;54518.53;4973155;28;20063;-76
2023/08/13 00:33:19;;;;;;;24.90;9.02;;;;;;;-144.73;100.00;54506.22;4973420;28;20019;-76
2023/08/13 00:35:45;;;;;;;34.25;9.30;;;;;;;-144.73;100.00;54543.16;4972369;28;20081;-76
2023/08/13 00:38:10;;;;;;;21.98;8.75;;;;;;;-144.73;100.00;54539.06;4966072;28;20057;-76
2023/08/13 00:40:35;;;;;;;28.45;9.52;;;;;;;-144.73;100.00;54518.53;4985909;28;20517;-76
2023/08/13 00:43:02;;;;;;;28.75;8.20;;;;;;;-144.73;100.00;54510.31;4992936;28;20029;-77
2023/08/13 00:45:31;;;;;;;28.90;10.93;;;;;;;-144.73;100.00;54582.16;4978842;28;20035;-77
2023/08/13 00:47:56;;;;;;;26.35;9.10;;;;;;;-144.73;100.00;54502.13;4972882;28;20041;-76
2023/08/13 00:50:22;;;;;;;26.42;7.85;;;;;;;-144.73;100.00;54592.44;4973455;28;20035;-75
2023/08/13 00:52:47;;;;;;;25.63;8.23;;;;;;;-144.73;100.00;54530.84;4973661;28;20027;-76
2023/08/13 00:55:14;;;;;;;24.67;8.18;;;;;;;-144.73;100.00;54588.31;4972421;28;20038;-76
2023/08/13 00:57:39;;;;;;;28.70;9.30;;;;;;;-144.73;100.00;54518.53;4972599;28;20109;-76
2023/08/13 01:00:06;;;;;;;29.02;7.70;;;;;;;-144.73;100.00;54571.91;4983431;28;20129;-76
2023/08/13 01:02:32;;;;;;;32.13;8.02;;;;;;;-144.73;100.00;54518.53;4981248;28;20017;-76
2023/08/13 01:04:58;;;;;;;29.45;7.63;;;;;;;-144.73;100.00;54539.06;4976566;28;20117;-76
2023/08/13 01:07:29;;;;;;;16.83;7.90;;;;;;;-144.73;100.00;54539.06;4978655;28;20033;-76
2023/08/13 01:10:30;;;;;;;24.00;7.68;;;;;;;-144.73;100.00;54563.69;4984142;28;20033;-76
2023/08/13 01:13:08;;;;;;;18.42;7.85;;;;;;;-144.73;100.00;54543.16;4971526;28;20022;-76
2023/08/13 01:15:37;;;;;;;20.38;7.78;;;;;;;-144.73;100.00;54543.16;4973251;28;20047;-76
2023/08/13 01:18:05;;;;;;;20.83;8.02;;;;;;;-144.73;100.00;54543.16;4980362;28;20038;-76
2023/08/13 01:20:31;;;;;;;30.38;8.73;;;;;;;-144.73;100.00;54571.91;4980031;28;20046;-76
2023/08/13 01:22:57;;;;;;;22.17;8.38;;;;;;;-144.73;100.00;54545.22;4973143;28;20085;-76
2023/08/13 01:25:25;;;;;;;30.38;8.40;;;;;;;-144.73;100.00;54559.59;4973480;28;20030;-76
2023/08/13 01:28:30;;;;;;;24.88;8.60;;;;;;;-144.73;100.00;54514.44;4972271;28;20023;-76
2023/08/13 01:31:01;;;;;;;25.10;8.85;;;;;;;-144.73;100.00;54528.81;4977954;28;20035;-77
2023/08/13 01:33:30;;;;;;;;;;;;;;;-144.73;100.00;54596.53;4983432;28;20014;-76
2023/08/13 01:36:01;;;;;;;28.63;9.30;;;;;;;-144.73;100.00;54539.06;4980038;28;19917;-76
2023/08/13 01:38:28;;;;;;;31.50;8.75;;;;;;;-144.73;100.00;54547.28;4977311;28;20058;-76
2023/08/13 01:40:56;;;;;;;28.38;8.65;;;;;;;-144.73;100.00;54510.31;4980055;28;20066;-77
2023/08/13 01:43:22;;;;;;;24.58;8.18;;;;;;;-144.73;100.00;54563.69;4972856;28;20505;-76
2023/08/13 01:45:47;;;;;;;24.35;9.48;;;;;;;-144.73;100.00;54526.75;4986751;28;20042;-77
2023/08/13 01:48:13;;;;;;;24.50;8.50;;;;;;;-144.73;100.00;54559.59;4977654;28;20057;-77
2023/08/13 01:50:39;;;;;;;23.15;7.97;;;;;;;-144.73;100.00;54584.22;4975090;28;20550;-77
2023/08/13 01:53:05;;;;;;;34.03;8.50;;;;;;;-144.73;100.00;54584.22;4972416;28;20026;-76
2023/08/13 01:55:30;;;;;;;23.40;8.27;;;;;;;-144.73;100.00;54547.28;4973236;28;20035;-77
2023/08/13 01:57:55;;;;;;;32.85;7.47;;;;;;;-144.73;100.00;54506.22;4968642;28;20030;-77
2023/08/13 02:00:21;;;;;;;22.85;7.50;;;;;;;-144.73;100.00;54559.59;4971177;28;20034;-76
2023/08/13 02:02:46;;;;;;;21.15;7.70;;;;;;;-144.73;100.00;54604.75;4972443;28;20022;-77
2023/08/13 02:05:12;;;;;;;33.50;8.82;;;;;;;-144.73;100.00;54571.91;4971724;28;20121;-76
2023/08/13 02:07:38;;;;;;;20.55;6.70;;;;;;;-144.73;100.00;54559.59;4973797;28;20026;-76
2023/08/13 02:10:04;;;;;;;22.10;7.03;;;;;;;-144.73;100.00;54539.06;4974643;28;20038;-76
2023/08/13 02:12:29;;;;;;;21.10;6.57;;;;;;;-144.73;100.00;54559.59;4975970;28;20070;-76
2023/08/13 02:14:55;;;;;;;25.88;7.82;;;;;;;-144.73;100.00;54539.06;4988440;28;20058;-76
2023/08/13 02:17:20;;;;;;;25.98;8.02;;;;;;;-144.73;100.00;54539.06;4978710;28;20027;-75
2023/08/13 02:19:45;;;;;;;19.75;6.80;;;;;;;-144.73;100.00;54588.31;4979242;28;20038;-76
2023/08/13 02:22:11;;;;;;;18.65;6.95;;;;;;;-144.73;100.00;54584.22;4996801;28;20014;-76
2023/08/13 02:24:37;;;;;;;20.63;7.32;;;;;;;-144.73;100.00;54555.47;4999590;28;20030;-76
2023/08/13 02:27:03;;;;;;;21.85;6.68;;;;;;;-144.73;100.00;54522.63;4979855;28;20057;-76
2023/08/13 02:29:28;;;;;;;18.38;6.72;;;;;;;-144.73;100.00;54557.53;4974665;28;20166;-76
2023/08/13 02:31:53;;;;;;;18.48;7.28;;;;;;;-144.73;100.00;54596.53;4977645;28;20019;-76
2023/08/13 02:34:19;;;;;;;28.35;6.85;;;;;;;-144.73;100.00;54551.38;4981126;28;20393;-76
2023/08/13 02:36:44;;;;;;;23.98;6.97;;;;;;;-144.73;100.00;54547.28;4977295;28;20036;-76
2023/08/13 02:39:10;;;;;;;15.95;6.93;;;;;;;-144.73;100.00;54621.16;4977790;28;20034;-76
2023/08/13 02:41:35;;;;;;;21.17;6.93;;;;;;;-144.73;100.00;54526.75;4982270;28;20109;-74
2023/08/13 02:44:00;;;;;;;21.83;6.03;;;;;;;-144.73;100.00;54561.63;4978075;28;20038;-74
2023/08/13 02:46:26;;;;;;;27.25;6.75;;;;;;;-144.73;100.00;54543.16;4979017;28;20074;-72
2023/08/13 02:48:56;;;;;;;21.40;7.35;;;;;;;-144.73;100.00;54547.28;4973402;28;20109;-75
2023/08/13 02:51:23;;;;;;;20.83;6.93;;;;;;;-144.73;100.00;54547.28;4971974;28;20023;-74
2023/08/13 02:53:48;;;;;;;18.02;6.28;;;;;;;-144.73;100.00;54567.81;4968361;28;20034;-75
2023/08/13 02:56:14;;;;;;;24.52;6.97;;;;;;;-144.73;100.00;54530.84;4969638;28;20018;-76
2023/08/13 02:58:39;;;;;;;15.32;6.50;;;;;;;-144.73;100.00;54543.16;4971959;28;20022;-75
2023/08/13 03:01:05;;;;;;;24.73;7.28;;;;;;;-144.73;100.00;54520.59;4967510;28;20034;-76
2023/08/13 03:03:30;;;;;;;25.00;7.53;;;;;;;-144.73;100.00;54541.13;4982873;28;20026;-76
2023/08/13 03:05:56;;;;;;;22.08;6.55;;;;;;;-144.73;100.00;54549.31;4984375;28;20029;-76
2023/08/13 03:08:22;;;;;;;19.65;6.40;;;;;;;-144.73;100.00;54563.69;4982647;28;20031;-76
2023/08/13 03:10:47;;;;;;;21.48;7.00;;;;;;;-144.73;100.00;54576.00;4984747;28;20397;-76
2023/08/13 03:13:13;;;;;;;23.90;7.68;;;;;;;-144.73;100.00;54563.69;4981491;28;20023;-76
2023/08/13 03:15:38;;;;;;;23.15;7.97;;;;;;;-144.73;100.00;54539.06;4980408;28;20039;-76
2023/08/13 03:18:04;;;;;;;29.80;7.57;;;;;;;-144.73;100.00;54547.28;4978834;28;20026;-75
2023/08/13 03:20:29;;;;;;;23.55;7.97;;;;;;;-144.73;100.00;54592.44;4975942;28;20367;-76
2023/08/13 03:22:55;;;;;;;27.02;7.93;;;;;;;-144.73;100.00;54555.47;4969384;28;20082;-75
2023/08/13 03:25:20;;;;;;;28.55;8.60;;;;;;;-144.73;100.00;54563.69;4969031;28;20039;-76
2023/08/13 03:27:48;;;;;;;32.35;8.65;;;;;;;-144.73;100.00;54563.69;4973491;28;20089;-76
2023/08/13 03:30:13;;;;;;;21.23;7.03;;;;;;;-144.73;100.00;54555.47;4975458;28;20114;-77
2023/08/13 03:32:39;;;;;;;28.23;7.85;;;;;;;-144.73;100.00;54576.00;4982026;28;20144;-75
2023/08/13 03:35:04;;;;;;;25.13;7.53;;;;;;;-144.73;100.00;54567.81;4986854;28;20098;-76
2023/08/13 03:37:30;;;;;;;18.80;7.35;;;;;;;-144.73;100.00;54551.38;4975856;28;20026;-76
2023/08/13 03:39:55;;;;;;;22.80;8.70;;;;;;;-144.73;100.00;54576.00;4976871;28;20035;-76
2023/08/13 03:42:20;;;;;;;29.58;8.05;;;;;;;-144.73;100.00;54555.47;4973556;28;20137;-75
2023/08/13 03:44:46;;;;;;;20.08;7.00;;;;;;;-144.73;100.00;54567.81;4973741;28;20030;-75
2023/08/13 03:47:11;;;;;;;26.67;7.80;;;;;;;-144.73;100.00;54567.81;4973256;28;20023;-75
2023/08/13 03:49:36;;;;;;;25.95;7.20;;;;;;;-144.73;100.00;54584.22;4968839;28;20030;-76
2023/08/13 03:52:02;;;;;;;17.83;6.72;;;;;;;-144.73;100.00;54551.38;4986258;28;20374;-75
2023/08/13 03:54:28;;;;;;;20.38;7.30;;;;;;;-144.73;100.00;54559.59;4983814;28;20493;-75
2023/08/13 03:56:53;;;;;;;33.17;7.93;;;;;;;-144.73;100.00;54588.31;4989224;28;20111;-74
2023/08/13 03:59:19;;;;;;;21.15;6.80;;;;;;;-144.73;100.00;54539.06;4986435;28;20066;-76
2023/08/13 04:01:44;;;;;;;18.27;6.55;;;;;;;-144.73;100.00;54543.16;4988640;28;20018;-76
2023/08/13 04:04:10;;;;;;;18.20;6.90;;;;;;;-144.73;100.00;54563.69;4989517;28;20030;-76
2023/08/13 04:06:35;;;;;;;16.70;5.85;;;;;;;-144.73;100.00;54539.06;4976836;28;20015;-76
2023/08/13 04:09:01;;;;;;;27.23;7.03;;;;;;;-144.73;100.00;54543.16;4978671;28;20053;-76
2023/08/13 04:11:28;;;;;;;17.40;6.22;;;;;;;-144.73;100.00;54592.44;4983958;28;20428;-75
2023/08/13 04:13:53;;;;;;;21.67;6.85;;;;;;;-144.73;100.00;54584.22;4987506;28;20026;-76
2023/08/13 04:16:18;;;;;;;26.73;7.75;;;;;;;-144.73;100.00;54569.84;4979509;28;20015;-76
2023/08/13 04:18:44;;;;;;;19.05;6.68;;;;;;;-144.73;100.00;54539.06;4987775;28;20084;-76
2023/08/13 04:21:09;;;;;;;27.15;7.35;;;;;;;-144.73;100.00;54549.31;4971035;28;20188;-77
2023/08/13 04:23:35;;;;;;;21.60;7.78;;;;;;;-144.73;100.00;54563.69;4986382;28;20010;-76
2023/08/13 04:26:00;;;;;;;18.08;7.00;;;;;;;-144.73;100.00;54545.22;4972014;28;20063;-76
2023/08/13 04:28:25;;;;;;;13.77;6.47;;;;;;;-144.73;100.00;54600.63;4972671;28;20041;-75
2023/08/13 04:30:51;;;;;;;25.42;8.27;;;;;;;-144.73;100.00;54559.59;4981963;28;20042;-76
2023/08/13 04:33:16;;;;;;;19.98;7.35;;;;;;;-144.73;100.00;54588.31;4982703;28;20050;-75
2023/08/13 04:35:41;;;;;;;15.85;6.22;;;;;;;-144.73;100.00;54580.13;4984258;28;20073;-75
2023/08/13 04:38:07;;;;;;;22.70;6.40;;;;;;;-144.73;100.00;54567.81;4975754;28;20027;-75
2023/08/13 04:40:32;;;;;;;16.13;5.40;;;;;;;-144.73;100.00;54563.69;4971314;28;20035;-75
2023/08/13 04:42:57;;;;;;;14.60;6.38;;;;;;;-144.73;100.00;54539.06;4979156;28;20029;-76
2023/08/13 04:45:23;;;;;;;17.23;6.07;;;;;;;-144.73;100.00;54539.06;4973341;28;20031;-75
2023/08/13 04:47:48;;;;;;;21.85;6.60;;;;;;;-144.73;100.00;54526.75;4972538;28;20069;-76
2023/08/13 04:50:13;;;;;;;17.73;5.65;;;;;;;-144.73;100.00;54588.31;4972390;28;20031;-73
2023/08/13 04:52:39;;;;;;;20.00;6.25;;;;;;;-144.73;100.00;54530.84;4967946;28;20011;-73
2023/08/13 04:55:04;;;;;;;22.65;6.45;;;;;;;-144.73;100.00;54563.69;4969156;28;20031;-73
2023/08/13 04:57:30;;;;;;;16.75;6.47;;;;;;;-144.73;100.00;54600.63;4972042;28;20516;-73
2023/08/13 04:59:58;;;;;;;22.25;5.72;;;;;;;-144.73;100.00;54539.06;4974669;28;20038;-75
2023/08/13 05:02:23;;;;;;;16.88;5.10;;;;;;;-144.73;100.00;54596.53;4988730;28;20030;-75
2023/08/13 05:04:49;;;;;;;17.45;6.28;;;;;;;-144.73;100.00;54543.16;4990017;28;20027;-73
2023/08/13 05:07:14;;;;;;;20.17;5.90;;;;;;;-144.73;100.00;54600.63;4974922;28;20422;-75
2023/08/13 05:09:39;;;;;;;22.58;5.57;;;;;;;-144.73;100.00;54571.91;4981943;28;20173;-76
2023/08/13 05:12:05;;;;;;;19.45;5.40;;;;;;;-144.73;100.00;54563.69;4977198;28;20073;-74
2023/08/13 05:14:30;;;;;;;16.92;5.72;;;;;;;-144.73;100.00;54580.13;4979529;28;20034;-73
2023/08/13 05:16:56;;;;;;;19.58;5.15;;;;;;;-144.73;100.00;54580.13;4980942;28;20028;-74
2023/08/13 05:19:21;;;;;;;14.60;5.75;;;;;;;-144.73;100.00;54563.69;4970398;28;20051;-73
2023/08/13 05:21:47;;;;;;;20.92;6.35;;;;;;;-144.73;100.00;54563.69;4978502;28;20037;-74
2023/08/13 05:24:12;;;;;;;22.63;5.80;;;;;;;-144.73;100.00;54563.69;4970047;28;20042;-74
2023/08/13 05:26:37;;;;;;;17.75;5.97;;;;;;;-144.73;100.00;54582.16;4977065;28;20022;-75
2023/08/13 05:29:03;;;;;;;15.57;5.50;;;;;;;-144.73;100.00;54580.13;4977977;28;20030;-75
2023/08/13 05:31:30;;;;;;;24.42;5.80;;;;;;;-144.73;100.00;54567.81;4978935;28;20010;-75
2023/08/13 05:33:57;;;;;;;15.05;5.72;;;;;;;-144.73;100.00;54567.81;4976038;28;20030;-74
2023/08/13 05:36:26;;;;;;;17.38;5.97;;;;;;;-144.73;100.00;54559.59;4978581;28;20121;-74
2023/08/13 05:38:51;;;;;;;15.70;5.28;;;;;;;-144.73;100.00;54584.22;4973956;28;20484;-75
2023/08/13 05:41:17;;;;;;;13.40;4.97;;;;;;;-144.73;100.00;54559.59;4979552;28;20030;-75
2023/08/13 05:43:43;;;;;;;22.58;5.10;;;;;;;-144.73;100.00;54588.31;4975487;28;20110;-75
2023/08/13 05:46:08;;;;;;;14.85;5.40;;;;;;;-144.73;100.00;54576.00;4985617;28;20043;-75
2023/08/13 05:48:33;;;;;;;14.10;5.20;;;;;;;-144.73;100.00;54588.31;4974374;28;20018;-74
2023/08/13 05:50:59;;;;;;;16.98;6.00;;;;;;;-144.73;100.00;54547.28;4974682;28;20046;-74
2023/08/13 05:53:24;;;;;;;14.88;4.97;;;;;;;-144.73;100.00;54547.28;4970902;28;20502;-75
2023/08/13 05:55:53;;;;;;;14.73;5.18;;;;;;;-144.73;100.00;54543.16;4969707;28;20066;-74
2023/08/13 05:58:19;;;;;;;22.92;5.32;;;;;;;-144.73;100.00;54571.91;4965784;28;20027;-74
2023/08/13 06:00:44;;;;;;;16.05;4.85;;;;;;;-144.73;100.00;54584.22;4978540;28;20041;-75
2023/08/13 06:03:10;;;;;;;17.20;5.55;;;;;;;-144.73;100.00;54559.59;4976842;28;20026;-75
2023/08/13 06:05:37;;;;;;;15.75;5.68;;;;;;;-144.73;100.00;54592.44;4971141;28;20031;-75
2023/08/13 06:08:03;;;;;;;17.13;5.22;;;;;;;-144.73;100.00;54543.16;4983559;28;20061;-74
2023/08/13 06:10:29;;;;;;;20.90;5.25;;;;;;;-144.73;100.00;54580.13;4985186;28;20054;-75
2023/08/13 06:12:55;;;;;;;11.20;4.75;;;;;;;-144.73;100.00;54590.38;4981670;28;20049;-75
2023/08/13 06:15:20;;;;;;;15.40;4.65;;;;;;;-144.73;100.00;54586.28;4979159;28;20502;-74
2023/08/13 06:17:47;;;;;;;13.50;4.72;;;;;;;-144.73;100.00;54567.81;4975853;28;20023;-75
2023/08/13 06:20:14;;;;;;;10.68;4.30;;;;;;;-144.73;100.00;54584.22;4979477;28;20034;-75
2023/08/13 06:22:40;;;;;;;12.13;4.32;;;;;;;-144.73;100.00;54567.81;4988369;28;20015;-75
2023/08/13 06:25:05;;;;;;;11.10;4.43;;;;;;;-144.73;100.00;54584.22;4978669;28;20034;-75
2023/08/13 06:27:31;;;;;;;17.95;5.35;;;;;;;-144.73;100.00;54502.13;4983757;28;20600;-75
2023/08/13 06:29:56;;;;;;;15.70;4.47;;;;;;;-144.73;100.00;54539.06;4986027;28;20513;-75
2023/08/13 06:32:21;;;;;;;23.15;4.15;;;;;;;-144.73;100.00;54596.53;4980179;28;20027;-75
2023/08/13 06:34:47;;;;;;;13.18;4.18;;;;;;;-144.73;100.00;54543.16;4976102;28;20089;-76
2023/08/13 06:37:12;;;;;;;20.73;5.22;;;;;;;-144.73;100.00;54580.13;4982071;28;20029;-74
2023/08/13 06:39:38;;;;;;;13.75;4.70;;;;;;;-144.73;100.00;54539.06;4979508;28;20045;-73
2023/08/13 06:42:04;;;;;;;14.25;4.40;;;;;;;-144.73;100.00;54551.38;4982813;28;20015;-73
2023/08/13 06:44:30;;;;;;;15.02;5.25;;;;;;;-144.73;100.00;54567.81;4989327;28;20038;-76
2023/08/13 06:46:56;;;;;;;16.02;4.82;;;;;;;-144.73;100.00;54559.59;4982294;28;20048;-75
2023/08/13 06:49:21;;;;;;;17.23;4.45;;;;;;;-144.73;100.00;54580.13;4981869;28;20426;-73
2023/08/13 06:51:46;;;;;;;12.70;4.43;;;;;;;-144.73;100.00;54547.28;4988054;28;20070;-74
2023/08/13 06:54:12;;;;;;;12.43;5.03;;;;;;;-144.73;100.00;54539.06;4984499;28;20536;-74
2023/08/13 06:56:37;;;;;;;16.13;5.22;;;;;;;-144.73;100.00;54580.13;4980407;28;20022;-75
2023/08/13 06:59:03;;;;;;;16.38;4.35;;;;;;;-144.73;100.00;54551.38;4979860;28;20073;-75
2023/08/13 07:01:29;;;;;;;15.95;4.57;;;;;;;-144.73;100.00;54588.31;4985956;28;20028;-75
2023/08/13 07:03:56;;;;;;;13.93;4.30;;;;;;;-144.73;100.00;54576.00;4983530;28;20022;-75
2023/08/13 07:06:21;;;;;;;15.52;4.53;;;;;;;-144.73;100.00;54549.31;4981029;28;20391;-74
2023/08/13 07:08:46;;;;;;;15.48;4.38;;;;;;;-144.73;100.00;54539.06;4990072;28;20031;-74
2023/08/13 07:11:12;;;;;;;10.75;3.88;;;;;;;-144.73;100.00;54571.91;4984986;28;20054;-75
2023/08/13 07:13:37;;;;;;;15.20;4.47;;;;;;;-144.73;100.00;54555.47;4989945;28;20025;-74
2023/08/13 07:16:03;;;;;;;22.02;5.00;;;;;;;-144.73;100.00;54580.13;4973663;28;20051;-75
2023/08/13 07:18:28;;;;;;;11.55;4.32;;;;;;;-144.73;100.00;54539.06;4977264;28;20046;-75
2023/08/13 07:20:54;;;;;;;15.63;4.53;;;;;;;-144.73;100.00;54563.69;4971769;28;20137;-74
2023/08/13 07:23:19;;;;;;;10.73;4.10;;;;;;;-144.73;100.00;54539.06;4972831;28;20089;-75
2023/08/13 07:25:45;;;;;;;12.90;3.97;;;;;;;-144.73;100.00;54561.63;4971469;28;20038;-75
2023/08/13 07:28:10;;;;;;;17.20;5.80;;;;;;;-144.73;100.00;54559.59;4973302;28;20027;-75
2023/08/13 07:30:35;;;;;;;19.13;4.20;;;;;;;-144.73;100.00;54539.06;4976683;28;20137;-75
2023/08/13 07:33:01;;;;;;;15.25;5.03;;;;;;;-144.73;100.00;54545.22;4983665;28;20076;-76
2023/08/13 07:35:27;;;;;;;12.40;3.75;;;;;;;-144.73;100.00;54551.38;4982099;28;20035;-76
2023/08/13 07:37:52;;;;;;;12.77;3.20;;;;;;;-144.73;100.00;54539.06;4977958;28;20425;-75
2023/08/13 07:40:18;;;;;;;16.45;3.85;;;;;;;-144.73;100.00;54516.47;4983755;28;20034;-76
2023/08/13 07:42:44;;;;;;;13.80;4.65;;;;;;;-144.73;100.00;54580.13;4979063;28;20161;-76
2023/08/13 07:45:10;;;;;;;11.23;3.65;;;;;;;-144.73;100.00;54498.00;4985445;28;20030;-76
2023/08/13 07:47:36;;;;;;;11.50;3.60;;;;;;;-144.73;100.00;54518.53;4990353;28;20037;-77
2023/08/13 07:50:04;;;;;;;15.35;4.00;;;;;;;-144.73;100.00;54539.06;4991643;28;20117;-77
2023/08/13 07:52:31;;;;;;;12.10;3.85;;;;;;;-144.73;100.00;54541.13;4983761;28;20030;-76
2023/08/13 07:54:56;;;;;;;15.98;3.65;;;;;;;-144.73;100.00;54539.06;4984393;28;20498;-77
2023/08/13 07:57:21;;;;;;;13.55;4.13;;;;;;;-144.73;100.00;54539.06;4977571;28;20023;-76
2023/08/13 07:59:47;;;;;;;18.17;3.67;;;;;;;-144.73;100.00;54514.44;4978525;28;20520;-77
2023/08/13 08:02:13;;;;;;;16.50;4.40;;;;;;;-144.73;100.00;54489.81;4974287;28;20023;-76
2023/08/13 08:04:38;;;;;;;11.45;4.20;;;;;;;-144.73;100.00;54522.63;4976441;28;20038;-76
2023/08/13 08:07:04;;;;;;;15.80;3.95;;;;;;;-144.73;100.00;54547.28;4977042;28;20030;-77
2023/08/13 08:09:29;;;;;;;19.38;4.07;;;;;;;-144.73;100.00;54559.59;4974275;28;20038;-76
2023/08/13 08:11:54;;;;;;;12.32;3.17;;;;;;;-144.73;100.00;54543.16;4978343;28;20030;-75
2023/08/13 08:14:20;;;;;;;18.67;3.88;;;;;;;-144.73;100.00;54502.13;4977892;28;20039;-77
2023/08/13 08:16:45;;;;;;;9.95;2.67;;;;;;;-144.73;100.00;54526.75;4975688;28;20018;-76
2023/08/13 08:19:12;;;;;;;15.27;3.00;;;;;;;-144.73;100.00;54506.22;4971703;28;20564;-76
2023/08/13 08:21:37;;;;;;;13.02;3.75;;;;;;;-144.73;100.00;54506.22;4976853;28;20027;-76
2023/08/13 08:24:03;;;;;;;11.18;3.30;;;;;;;-144.73;100.00;54508.28;4978851;28;20023;-76
2023/08/13 08:26:29;;;;;;;12.00;3.03;;;;;;;-144.73;100.00;54520.59;4973551;28;20038;-76
2023/08/13 08:28:54;;;;;;;14.88;4.00;;;;;;;-144.73;100.00;54510.31;4983828;28;20026;-76
2023/08/13 08:31:20;;;;;;;8.50;3.22;;;;;;;-144.73;100.00;54495.97;4975633;28;20046;-76
2023/08/13 08:33:46;;;;;;;9.20;2.50;;;;;;;-144.73;100.00;54448.75;4971965;28;20023;-76
2023/08/13 08:36:11;;;;;;;9.77;2.42;;;;;;;-144.73;100.00;54489.81;4971708;28;20468;-76
2023/08/13 08:38:37;;;;;;;16.77;2.67;;;;;;;-144.73;100.00;54483.66;4971670;28;20038;-76
2023/08/13 08:41:02;;;;;;;12.50;3.35;;;;;;;-144.73;100.00;54489.81;4977044;28;20042;-76
2023/08/13 08:43:31;;;;;;;7.70;2.20;;;;;;;-144.73;100.00;54510.31;4983145;28;20061;-77
2023/08/13 08:46:00;;;;;;;8.60;2.63;;;;;;;-144.73;100.00;54489.81;4972488;28;20077;-74
2023/08/13 08:48:32;;;;;;;10.30;3.10;;;;;;;-144.73;100.00;54600.63;4979936;28;20065;-76
2023/08/13 08:50:57;;;;;;;7.97;2.28;;;;;;;-144.73;100.00;54489.81;4964109;28;20026;-76
2023/08/13 08:53:24;;;;;;;10.25;3.00;;;;;;;-144.73;100.00;54481.59;4972025;28;20023;-76
2023/08/13 08:55:50;;;;;;;10.20;2.58;;;;;;;-144.73;100.00;54539.06;4970857;28;20027;-76
2023/08/13 08:58:15;;;;;;;11.95;2.95;;;;;;;-144.73;100.00;54489.81;4972911;28;20054;-76
2023/08/13 09:00:41;;;;;;;4.55;1.98;;;;;;;-144.73;100.00;54524.69;4971573;28;20045;-76
2023/08/13 09:03:06;;;;;;;9.00;2.30;;;;;;;-144.73;100.00;54481.59;4972741;28;20101;-76
2023/08/13 09:05:36;;;;;;;7.38;1.83;;;;;;;-144.73;100.00;54432.31;4987854;28;20096;-76
2023/08/13 09:08:20;;;;;;;7.88;1.95;;;;;;;-144.73;100.00;54498.00;4982796;28;20065;-76
2023/08/13 09:10:45;;;;;;;11.10;2.35;;;;;;;-144.73;100.00;54489.81;4986252;28;20035;-76
2023/08/13 09:13:11;;;;;;;9.88;2.08;;;;;;;-144.73;100.00;54504.16;4979455;28;20027;-76
2023/08/13 09:15:44;;;;;;;10.57;2.47;;;;;;;-144.73;100.00;54510.31;4986760;28;20073;-76
2023/08/13 09:18:10;;;;;;;7.50;1.98;;;;;;;-144.73;100.00;54469.28;4990835;28;20030;-76
2023/08/13 09:20:44;;;;;;;10.90;2.88;;;;;;;-144.73;100.00;54477.47;4979433;28;20035;-76
2023/08/13 09:23:10;;;;;;;10.23;2.33;;;;;;;-144.73;100.00;54465.16;4970881;28;20029;-76
2023/08/13 09:25:35;;;;;;;16.00;2.55;;;;;;;-144.73;100.00;54485.69;4974904;28;20089;-76
2023/08/13 09:28:01;;;;;;;8.75;2.25;;;;;;;-144.73;100.00;54420.00;4972738;28;20035;-76
2023/08/13 09:30:31;;;;;;;9.55;2.30;;;;;;;-144.73;100.00;54485.69;4976910;28;20034;-76
2023/08/13 09:32:59;;;;;;;8.70;2.47;;;;;;;-144.73;98.39;54481.59;4979266;28;20060;-76
2023/08/13 09:35:27;;;;;;;4.45;1.92;;;;;;;-144.73;98.76;54489.81;4981519;28;20049;-76
2023/08/13 09:37:53;;;;;;;11.13;2.20;;;;;;;-144.73;96.65;54444.66;4979993;28;20114;-77
2023/08/13 09:40:19;;;;;;;6.75;2.15;;;;;;;-144.73;95.86;54465.16;4978509;28;20035;-77
2023/08/13 09:42:46;;;;;;;7.18;2.53;;;;;;;-144.73;91.96;54485.69;4978717;28;20073;-76
2023/08/13 09:45:12;;;;;;;5.75;1.83;;;;;;;-144.73;94.66;54450.81;4976148;28;20033;-77
2023/08/13 09:47:40;;;;;;;4.55;1.70;;;;;;;-144.73;92.88;54506.22;4979969;28;20026;-77
2023/08/13 09:50:06;;;;;;;6.75;2.30;;;;;;;-144.73;91.66;54475.44;4987812;28;20046;-77
2023/08/13 09:52:32;;;;;;;7.85;2.10;;;;;;;-144.73;88.26;54452.84;4977387;28;20037;-76
2023/08/13 09:55:11;;;;;;;7.65;2.28;;;;;;;-144.73;89.72;54485.69;4971756;28;20091;-76
2023/08/13 09:57:38;;;;;;;7.60;1.92;;;;;;;-144.73;94.00;54440.53;4963007;28;20478;-77
2023/08/13 10:00:06;;;;;;;5.15;1.90;;;;;;;-144.73;92.31;54440.53;4974472;28;20418;-77
2023/08/13 10:02:32;;;;;;;5.32;1.90;;;;;;;-144.73;92.83;54461.06;4972857;28;20042;-77
2023/08/13 10:04:58;;;;;;;8.80;1.70;;;;;;;-144.73;97.52;54514.44;4965647;28;20065;-77
2023/08/13 10:07:24;;;;;;;7.20;1.85;;;;;;;-144.73;97.98;54456.97;4959437;28;20042;-76
2023/08/13 10:09:50;;;;;;;4.55;1.38;;;;;;;-144.73;95.54;54444.66;4962820;28;20042;-75
2023/08/13 10:12:17;;;;;;;7.00;1.63;;;;;;;-144.73;94.42;54473.38;4963498;28;20026;-75
2023/08/13 10:14:42;;;;;;;7.47;1.73;;;;;;;-144.73;90.04;54426.16;4962172;28;20031;-75
2023/08/13 10:17:08;;;;;;;5.10;1.75;;;;;;;-144.73;89.35;54456.97;4966815;28;20073;-75
2023/08/13 10:19:38;;;;;;;13.95;2.40;;;;;;;-144.73;90.57;54448.75;4965952;28;20037;-75
2023/08/13 10:22:04;;;;;;;15.20;2.80;;;;;;;-144.73;94.12;54465.16;4966462;28;20065;-75
2023/08/13 10:24:30;;;;;;;8.18;2.25;;;;;;;-144.73;88.71;54411.81;4967702;28;20042;-76
2023/08/13 10:26:58;;;;;;;10.60;2.50;;;;;;;-144.73;87.92;54461.06;4970007;28;20030;-76
2023/08/13 10:29:25;;;;;;;5.10;1.67;;;;;;;-144.73;89.87;54467.22;4977093;28;20035;-76
2023/08/13 10:32:01;;;;;;;9.35;2.25;;;;;;;-144.73;88.01;54489.81;4969487;28;20026;-76
2023/08/13 10:34:53;;;;;;;8.98;1.67;;;;;;;-144.73;86.73;54483.66;4968519;28;20069;-76
2023/08/13 10:37:31;;;;;;;8.10;2.47;;;;;;;-144.73;88.94;54469.28;4965331;28;20026;-76
2023/08/13 10:39:56;;;;;;;4.95;1.65;;;;;;;-144.73;90.52;54456.97;4980549;28;20038;-76
2023/08/13 10:42:36;;;;;;;7.25;2.10;;;;;;;-144.73;93.83;54483.66;4977747;28;20033;-77
2023/08/13 10:45:05;;;;;;;11.20;2.42;;;;;;;-144.73;94.53;54420.00;4970683;28;20102;-77
2023/08/13 10:47:38;;;;;;;7.38;2.13;;;;;;;-144.73;93.67;54489.81;4975618;28;20423;-77
2023/08/13 10:50:15;;;;;;;6.70;2.08;;;;;;;-144.73;88.72;54444.66;4974539;28;20094;-76
2023/08/13 10:52:41;;;;;;;10.07;2.40;;;;;;;-144.73;97.64;54456.97;4980578;28;20019;-76
2023/08/13 10:55:09;;;;;;;5.90;1.95;;;;;;;-144.73;96.55;54510.31;4966426;28;20038;-77
2023/08/13 10:57:35;;;;;;;8.55;2.00;;;;;;;-144.73;96.75;54456.97;4972224;28;20026;-76
2023/08/13 11:00:03;;;;;;;9.10;2.20;;;;;;;-144.73;94.07;54436.44;4966325;28;20038;-76
2023/08/13 11:02:30;;;;;;;9.95;2.28;;;;;;;-144.73;95.51;54407.69;4969774;28;20377;-77